Time;durP1;ratioP1;P1;durP2;ratioP2;P2;SDS_P1;SDS_P2;PMS_P1;PMS_P2;Temp;Humidity;BMP_temperature;BMP_pressure;BME280_temperature;BME280_humidity;BME280_pressure;Samples;Min_cycle;Max_cycle;Signal;HPM_P1;HPM_P2
2021/09/19 00:02:19;;;;;;;8.60;3.90;;;;;;;17.18;78.48;98593.20;27192;1216;3057566;-66
2021/09/19 00:04:48;;;;;;;9.50;4.60;;;;;;;17.02;79.05;98593.23;27218;1216;3026411;-64
2021/09/19 00:07:17;;;;;;;9.80;4.40;;;;;;;16.85;79.71;98599.05;27242;1216;3054301;-63
2021/09/19 00:09:46;;;;;;;12.20;5.50;;;;;;;17.23;78.83;98594.20;27197;1216;3028179;-64
2021/09/19 00:12:17;;;;;;;11.30;6.00;;;;;;;17.39;78.29;98589.00;27222;1216;3054102;-65
2021/09/19 00:14:47;;;;;;;11.80;5.90;;;;;;;17.39;78.35;98593.52;27208;1215;3026295;-63
2021/09/19 00:17:17;;;;;;;15.00;7.50;;;;;;;17.32;78.58;98590.68;27194;1209;3026672;-66
2021/09/19 00:19:48;;;;;;;10.10;5.60;;;;;;;17.05;79.47;98594.02;27240;1216;3054220;-62
2021/09/19 00:22:17;;;;;;;12.70;6.60;;;;;;;17.44;78.62;98589.02;27220;1216;3029395;-65
2021/09/19 00:24:46;;;;;;;16.10;7.00;;;;;;;17.68;77.35;98584.55;27240;1215;3026353;-60
2021/09/19 00:27:19;;;;;;;12.90;6.90;;;;;;;17.56;77.55;98584.27;27220;1216;3054764;-63
2021/09/19 00:30:09;;;;;;;18.10;8.00;;;;;;;17.31;78.22;98588.77;27254;1218;3052396;-62
2021/09/19 00:32:39;;;;;;;14.70;6.70;;;;;;;17.01;79.67;98591.63;27266;1215;3026031;-64
2021/09/19 00:35:09;;;;;;;15.30;7.20;;;;;;;17.28;78.88;98589.20;27215;1215;3026287;-67
2021/09/19 00:37:38;;;;;;;16.50;7.50;;;;;;;17.40;78.15;98586.05;27221;1215;3051625;-63
2021/09/19 00:40:08;;;;;;;13.40;7.00;;;;;;;17.24;78.73;98583.23;27211;1215;3025706;-63
2021/09/19 00:42:37;;;;;;;13.30;6.10;;;;;;;17.08;79.33;98577.61;27231;1216;3026341;-65
2021/09/19 00:45:12;;;;;;;10.80;4.70;;;;;;;16.88;79.73;98580.30;27189;1216;3026379;-63
2021/09/19 00:47:41;;;;;;;7.50;3.70;;;;;;;17.30;78.12;98572.66;27223;1216;3050214;-65
2021/09/19 00:50:12;;;;;;;10.40;4.50;;;;;;;17.46;77.67;98573.71;27177;1216;3026164;-68
2021/09/19 00:52:43;;;;;;;11.50;4.50;;;;;;;17.44;77.59;98571.30;27199;1216;3027131;-64
2021/09/19 00:55:13;;;;;;;8.90;3.50;;;;;;;17.16;78.73;98568.66;27257;1215;3026588;-64
2021/09/19 00:57:55;;;;;;;7.10;2.90;;;;;;;17.04;79.40;98568.80;27212;1215;3027983;-65
2021/09/19 01:00:26;;;;;;;6.40;3.10;;;;;;;17.59;77.16;98562.99;27198;1216;3059007;-62
2021/09/19 01:02:56;;;;;;;5.90;3.20;;;;;;;17.65;76.66;98558.66;27215;1215;3026457;-65
2021/09/19 01:05:25;;;;;;;6.50;3.40;;;;;;;17.59;76.76;98565.13;27248;1215;3026196;-65
2021/09/19 01:07:55;;;;;;;9.60;3.60;;;;;;;17.46;77.00;98559.39;27240;1216;3026117;-65
2021/09/19 01:10:28;;;;;;;;;;;;;;;17.36;77.65;98561.11;27202;1215;3048815;-64
2021/09/19 01:13:17;;;;;;;5.40;2.70;;;;;;;17.59;77.31;98564.58;27239;1215;3051923;-67
2021/09/19 01:15:49;;;;;;;6.00;3.70;;;;;;;17.78;76.25;98568.60;27241;1216;3026418;-66
2021/09/19 01:18:19;;;;;;;5.90;2.90;;;;;;;17.78;75.94;98562.30;27170;1215;3025987;-64
2021/09/19 01:20:49;;;;;;;8.50;3.80;;;;;;;17.64;76.55;98559.96;27220;1218;3054711;-68
2021/09/19 01:23:38;;;;;;;7.50;4.00;;;;;;;17.48;77.48;98562.85;27254;1218;3054025;-66
2021/09/19 01:26:07;;;;;;;6.40;2.90;;;;;;;17.36;77.35;98560.44;27210;1208;3026028;-67
2021/09/19 01:28:36;;;;;;;7.70;3.50;;;;;;;17.76;76.62;98559.81;27189;1218;3026415;-65
2021/09/19 01:31:19;;;;;;;9.60;4.30;;;;;;;18.00;75.59;98553.11;27239;1216;3053222;-69
2021/09/19 01:34:06;;;;;;;10.20;4.80;;;;;;;17.92;75.58;98549.61;27194;1216;3071271;-64
2021/09/19 01:36:55;;;;;;;12.30;5.00;;;;;;;17.69;76.60;98548.86;27214;1216;3052964;-62
2021/09/19 01:39:24;;;;;;;7.10;3.90;;;;;;;17.61;76.84;98545.65;27251;1216;3026638;-64
2021/09/19 01:41:53;;;;;;;14.80;4.70;;;;;;;17.92;76.05;98545.29;27231;1216;3069992;-66
2021/09/19 01:44:22;;;;;;;15.50;6.30;;;;;;;18.13;75.46;98542.29;27190;1215;3026131;-64
2021/09/19 01:46:52;;;;;;;12.00;5.10;;;;;;;18.07;75.23;98547.58;27222;1216;3052326;-62
2021/09/19 01:49:21;;;;;;;13.10;5.50;;;;;;;17.82;76.06;98546.27;27244;1209;3027126;-65
2021/09/19 01:51:50;;;;;;;10.40;5.00;;;;;;;17.66;76.81;98547.08;27261;1215;3054127;-65
2021/09/19 01:54:19;;;;;;;13.20;5.00;;;;;;;17.46;77.89;98543.10;27189;1215;3026347;-66
2021/09/19 01:56:54;;;;;;;12.40;4.70;;;;;;;17.90;76.60;98540.52;27220;1216;3051721;-66
2021/09/19 01:59:23;;;;;;;10.80;4.50;;;;;;;18.21;75.40;98537.41;27248;1216;3026069;-67
2021/09/19 02:01:53;;;;;;;10.30;5.30;;;;;;;18.09;75.65;98536.91;27208;1216;3058505;-62
2021/09/19 02:04:42;;;;;;;10.80;5.70;;;;;;;17.75;77.08;98539.44;27255;1209;3050185;-68
2021/09/19 02:07:11;;;;;;;13.00;4.60;;;;;;;17.62;77.50;98537.22;27234;1216;3026436;-66
2021/09/19 02:09:40;;;;;;;8.30;3.50;;;;;;;17.38;78.64;98531.91;27208;1216;3058063;-66
2021/09/19 02:12:09;;;;;;;9.50;3.50;;;;;;;17.83;77.26;98529.33;27255;1209;3026160;-63
2021/09/19 02:14:38;;;;;;;7.60;4.00;;;;;;;18.05;75.56;98526.39;27226;1215;3054456;-63
2021/09/19 02:17:10;;;;;;;10.00;4.20;;;;;;;18.15;75.51;98519.80;27208;1215;3026127;-65
2021/09/19 02:19:55;;;;;;;8.60;4.40;;;;;;;17.93;75.71;98522.42;27246;1216;3049097;-67
2021/09/19 02:22:24;;;;;;;9.80;4.00;;;;;;;17.72;76.29;98526.78;27179;1216;3026345;-63
2021/09/19 02:24:55;;;;;;;6.30;3.10;;;;;;;17.44;78.07;98530.18;27210;1216;3058685;-67
2021/09/19 02:27:25;;;;;;;6.80;3.00;;;;;;;17.87;76.48;98525.36;27223;1216;3026395;-61
2021/09/19 02:30:04;;;;;;;7.90;3.50;;;;;;;18.18;75.42;98523.02;27198;1215;3054750;-65
2021/09/19 02:32:33;;;;;;;13.60;3.80;;;;;;;18.07;75.45;98523.30;27178;1215;3025818;-63
2021/09/19 02:35:03;;;;;;;9.70;3.60;;;;;;;17.89;76.11;98527.01;27241;1209;3025716;-67
2021/09/19 02:37:36;;;;;;;11.70;3.80;;;;;;;17.77;76.18;98526.63;27179;1216;3053741;-65
2021/09/19 02:40:06;;;;;;;6.00;2.90;;;;;;;17.63;76.72;98523.31;27202;1216;3026358;-64
2021/09/19 02:42:35;;;;;;;4.60;2.90;;;;;;;18.00;75.59;98521.36;27233;1216;3026921;-64
2021/09/19 02:45:15;;;;;;;5.30;2.80;;;;;;;18.28;74.22;98522.42;27220;1216;3054903;-62
2021/09/19 02:47:44;;;;;;;8.70;3.60;;;;;;;18.17;74.14;98523.50;27203;1215;3030032;-64
2021/09/19 02:50:16;;;;;;;10.40;3.80;;;;;;;17.99;74.88;98526.40;27180;1216;3048428;-65
2021/09/19 02:52:45;;;;;;;5.30;3.30;;;;;;;17.69;76.23;98532.72;27205;1215;3028219;-64
2021/09/19 02:55:18;;;;;;;7.00;2.80;;;;;;;17.68;76.31;98533.62;27236;1215;3026763;-65
2021/09/19 02:57:48;;;;;;;4.90;3.00;;;;;;;18.00;75.13;98531.29;27258;1216;3026436;-65
2021/09/19 03:00:19;;;;;;;7.70;3.10;;;;;;;18.23;74.45;98530.30;27219;1209;3026405;-67
2021/09/19 03:02:48;;;;;;;5.80;3.30;;;;;;;18.20;74.48;98528.66;27226;1216;3050643;-67
2021/09/19 03:05:17;;;;;;;6.10;3.70;;;;;;;18.01;74.92;98528.52;27230;1215;3025867;-64
2021/09/19 03:07:46;;;;;;;9.20;3.80;;;;;;;17.77;76.04;98525.90;27210;1215;3052474;-63
2021/09/19 03:10:15;;;;;;;5.90;2.40;;;;;;;17.60;76.75;98528.18;27229;1216;3026550;-67
2021/09/19 03:12:46;;;;;;;10.10;3.20;;;;;;;18.14;74.90;98522.54;27223;1216;3026606;-67
2021/09/19 03:15:19;;;;;;;6.00;3.00;;;;;;;18.39;74.27;98525.70;27194;1209;3027753;-64
2021/09/19 03:17:50;;;;;;;6.50;3.20;;;;;;;18.21;74.66;98518.06;27203;1216;3026872;-65
2021/09/19 03:20:21;;;;;;;6.90;3.60;;;;;;;18.04;75.30;98521.65;27181;1215;3027735;-66
2021/09/19 03:22:50;;;;;;;8.20;3.20;;;;;;;17.81;75.89;98524.95;27245;1209;3026540;-62
2021/09/19 03:25:21;;;;;;;5.30;2.90;;;;;;;17.79;76.49;98522.89;27245;1216;3053708;-63
2021/09/19 03:27:51;;;;;;;5.00;2.90;;;;;;;18.29;74.88;98520.80;27215;1216;3026423;-65
2021/09/19 03:30:20;;;;;;;4.60;3.10;;;;;;;18.58;73.70;98523.45;27229;1216;3026286;-63
2021/09/19 03:33:09;;;;;;;4.40;3.20;;;;;;;18.44;73.56;98523.92;27222;1218;3052309;-63
2021/09/19 03:35:38;;;;;;;6.10;3.70;;;;;;;18.30;74.43;98518.90;27245;1216;3027838;-68
2021/09/19 03:38:06;;;;;;;9.10;3.40;;;;;;;18.08;75.26;98513.51;27257;1216;3047961;-63
2021/09/19 03:40:36;;;;;;;5.40;2.80;;;;;;;17.95;75.60;98511.98;27245;1215;3026296;-64
2021/09/19 03:43:06;;;;;;;6.50;2.80;;;;;;;18.26;75.00;98507.72;27249;1216;3069792;-65
2021/09/19 03:45:35;;;;;;;6.80;3.30;;;;;;;18.61;73.29;98506.33;27204;1216;3026644;-65
2021/09/19 03:48:07;;;;;;;5.40;3.10;;;;;;;18.49;73.70;98516.98;27248;1215;3053042;-64
2021/09/19 03:50:36;;;;;;;7.70;3.80;;;;;;;18.13;74.87;98527.42;27212;1215;3026531;-65
2021/09/19 03:53:06;;;;;;;6.30;4.00;;;;;;;17.83;76.26;98522.13;27211;1215;3026850;-63
2021/09/19 03:55:35;;;;;;;5.30;2.50;;;;;;;17.76;76.65;98523.92;27216;1216;3026697;-68
2021/09/19 03:58:04;;;;;;;8.00;3.50;;;;;;;18.09;75.86;98518.45;27249;1216;3070195;-61
2021/09/19 04:02:02;;;;;;;7.40;3.10;;;;;;;18.46;74.33;98515.70;34336;1218;3025836;-68
2021/09/19 04:04:31;;;;;;;8.40;5.10;;;;;;;18.68;73.25;98516.41;27181;1219;3025888;-66
2021/09/19 04:07:01;;;;;;;9.40;4.50;;;;;;;18.58;73.47;98521.34;27213;1218;3027990;-68
2021/09/19 04:09:30;;;;;;;6.80;2.80;;;;;;;18.17;75.33;98522.05;27199;1218;3026021;-64
2021/09/19 04:11:59;;;;;;;10.40;3.70;;;;;;;18.42;74.41;98523.95;27183;1218;3052365;-64
2021/09/19 04:14:29;;;;;;;7.00;3.40;;;;;;;18.70;73.66;98524.73;27213;1218;3026499;-65
2021/09/19 04:16:58;;;;;;;4.70;3.30;;;;;;;18.53;73.92;98532.39;27197;1216;3025989;-64
2021/09/19 04:19:27;;;;;;;9.10;3.90;;;;;;;18.35;74.30;98529.67;27225;1216;3051972;-66
2021/09/19 04:21:56;;;;;;;7.10;4.20;;;;;;;18.04;75.71;98532.98;27233;1216;3026732;-67
2021/09/19 04:24:26;;;;;;;14.00;3.40;;;;;;;17.85;76.73;98536.25;27263;1216;3048355;-64
2021/09/19 04:26:55;;;;;;;8.40;3.90;;;;;;;18.28;75.23;98534.11;27236;1216;3028265;-66
2021/09/19 04:29:24;;;;;;;8.10;3.60;;;;;;;18.61;73.76;98534.38;27231;1216;3029723;-66
2021/09/19 04:31:55;;;;;;;9.30;4.00;;;;;;;18.63;73.13;98529.98;27179;1216;3050314;-64
2021/09/19 04:34:24;;;;;;;11.10;4.70;;;;;;;18.48;73.67;98530.43;27225;1209;3027804;-65
2021/09/19 04:36:53;;;;;;;6.50;4.40;;;;;;;18.38;73.75;98531.73;27205;1216;3028446;-64
2021/09/19 04:39:22;;;;;;;8.90;3.80;;;;;;;18.11;75.00;98533.34;27250;1216;3047913;-67
2021/09/19 04:42:13;;;;;;;7.50;4.50;;;;;;;18.57;73.67;98527.98;27212;1216;3054716;-63
2021/09/19 04:44:43;;;;;;;11.20;4.90;;;;;;;18.88;72.42;98522.36;27212;1216;3026354;-66
2021/09/19 04:47:12;;;;;;;10.00;5.10;;;;;;;18.85;72.47;98522.35;27307;1208;3025710;-63
2021/09/19 04:49:42;;;;;;;9.60;6.10;;;;;;;18.67;72.94;98529.98;27203;1215;3054574;-66
2021/09/19 04:52:13;;;;;;;9.70;6.40;;;;;;;18.43;74.17;98535.78;27225;1215;3026305;-63
2021/09/19 04:54:45;;;;;;;9.50;5.70;;;;;;;18.36;74.56;98538.31;27238;1215;3027233;-67
2021/09/19 04:57:13;;;;;;;14.30;8.70;;;;;;;18.66;73.86;98537.10;27206;1215;3028200;-63
2021/09/19 04:59:43;;;;;;;12.50;9.10;;;;;;;18.83;72.65;98530.03;27214;1215;3054296;-63
2021/09/19 05:02:12;;;;;;;15.10;9.40;;;;;;;18.69;73.27;98530.24;27240;1215;3026423;-64
2021/09/19 05:04:41;;;;;;;15.20;10.10;;;;;;;18.60;73.70;98530.71;27183;1215;3054130;-63
2021/09/19 05:07:12;;;;;;;20.40;10.50;;;;;;;18.47;74.02;98528.64;27240;1215;3025617;-69
2021/09/19 05:09:42;;;;;;;13.50;8.60;;;;;;;18.26;74.79;98525.90;27234;1215;3025566;-65
2021/09/19 05:12:31;;;;;;;13.40;9.10;;;;;;;18.70;74.07;98528.78;27196;1216;3052283;-65
2021/09/19 05:15:00;;;;;;;16.00;9.40;;;;;;;18.86;73.31;98528.22;27191;1216;3028153;-62
2021/09/19 05:17:28;;;;;;;14.10;8.50;;;;;;;18.77;73.45;98525.35;27237;1216;3047693;-64
2021/09/19 05:19:58;;;;;;;13.50;8.10;;;;;;;18.59;74.05;98531.15;27225;1216;3026489;-65
2021/09/19 05:22:33;;;;;;;16.90;9.00;;;;;;;18.30;75.31;98534.52;27184;1216;3071382;-62
2021/09/19 05:25:02;;;;;;;13.70;6.50;;;;;;;18.22;76.38;98531.38;27197;1209;3025754;-68
2021/09/19 05:27:51;;;;;;;16.50;8.40;;;;;;;18.73;74.39;98521.48;27195;1216;3050689;-66
2021/09/19 05:30:21;;;;;;;14.10;9.00;;;;;;;19.12;73.16;98520.45;27227;1216;3025862;-65
2021/09/19 05:32:51;;;;;;;20.10;10.00;;;;;;;18.73;74.01;98527.13;27244;1216;3051278;-65
2021/09/19 05:35:21;;;;;;;19.10;11.40;;;;;;;18.60;74.13;98538.73;27212;1213;3026432;-66
2021/09/19 05:37:51;;;;;;;18.40;10.40;;;;;;;18.37;75.20;98535.17;27196;1216;3026062;-67
2021/09/19 05:40:20;;;;;;;11.70;7.40;;;;;;;18.15;76.52;98540.66;27265;1209;3026107;-63
2021/09/19 05:43:02;;;;;;;16.00;11.00;;;;;;;18.80;74.58;98543.06;27217;1216;3052775;-69
2021/09/19 05:45:32;;;;;;;20.20;12.70;;;;;;;19.03;73.43;98545.60;27209;1216;3026087;-64
2021/09/19 05:48:01;;;;;;;20.90;13.30;;;;;;;18.85;73.43;98555.35;27222;1209;3026340;-65
2021/09/19 05:50:49;;;;;;;25.60;15.20;;;;;;;18.74;73.56;98561.70;27232;1216;3049515;-66
2021/09/19 05:53:18;;;;;;;19.80;12.80;;;;;;;18.38;75.07;98557.02;27194;1216;3025992;-65
2021/09/19 05:55:55;;;;;;;28.60;15.70;;;;;;;18.68;74.81;98559.98;27248;1216;3055135;-63
2021/09/19 05:58:24;;;;;;;28.10;17.30;;;;;;;18.67;74.60;98559.61;27217;1209;3027823;-63
2021/09/19 06:01:12;;;;;;;34.80;21.70;;;;;;;18.64;74.79;98562.38;27214;1209;3051607;-65
2021/09/19 06:03:42;;;;;;;36.40;23.80;;;;;;;18.53;74.65;98569.96;27246;1216;3026183;-69
2021/09/19 06:06:15;;;;;;;28.70;19.10;;;;;;;18.24;75.45;98567.41;27225;1216;3026062;-66
2021/09/19 06:08:46;;;;;;;32.60;21.80;;;;;;;19.01;73.62;98552.20;27196;1216;3026570;-61
2021/09/19 06:11:18;;;;;;;33.80;23.10;;;;;;;19.22;72.29;98544.88;27203;1217;3026333;-67
2021/09/19 06:14:07;;;;;;;40.60;24.90;;;;;;;19.06;72.45;98545.21;27241;1215;3052942;-64
2021/09/19 06:16:36;;;;;;;39.10;25.50;;;;;;;18.93;72.68;98548.96;27227;1216;3026858;-67
2021/09/19 06:19:16;;;;;;;27.20;17.40;;;;;;;18.70;74.18;98547.02;27247;1216;3058114;-67
2021/09/19 06:21:48;;;;;;;32.00;21.10;;;;;;;19.48;72.18;98535.13;27230;1216;3026241;-62
2021/09/19 06:24:20;;;;;;;30.20;21.00;;;;;;;19.78;70.44;98542.57;27214;1216;3026254;-64
2021/09/19 06:27:12;;;;;;;28.50;19.70;;;;;;;19.63;70.52;98544.29;27228;1216;3053157;-62
2021/09/19 06:29:42;;;;;;;33.40;21.90;;;;;;;19.48;70.62;98542.91;27248;1216;3026108;-67
2021/09/19 06:32:11;;;;;;;29.30;17.70;;;;;;;19.20;71.33;98543.89;27223;1216;3026114;-65
2021/09/19 06:34:42;;;;;;;18.80;13.30;;;;;;;19.14;71.36;98557.50;27234;1217;3051862;-67
2021/09/19 06:37:11;;;;;;;23.50;15.70;;;;;;;19.43;70.85;98554.25;27211;1216;3026481;-63
2021/09/19 06:39:40;;;;;;;25.50;17.70;;;;;;;19.71;69.42;98556.17;27214;1216;3053370;-63
2021/09/19 06:42:25;;;;;;;24.70;17.30;;;;;;;19.61;69.30;98552.41;27236;1218;3053114;-70
2021/09/19 06:44:55;;;;;;;22.30;15.40;;;;;;;19.53;69.17;98560.05;27195;1216;3026417;-67
2021/09/19 06:47:25;;;;;;;25.50;16.90;;;;;;;19.17;70.53;98569.41;27232;1216;3026278;-66
2021/09/19 06:49:56;;;;;;;18.90;12.50;;;;;;;19.02;71.37;98571.80;27227;1216;3026149;-68
2021/09/19 06:52:26;;;;;;;22.20;15.30;;;;;;;19.61;70.01;98568.46;27206;1216;3028336;-65
2021/09/19 06:54:56;;;;;;;23.60;16.40;;;;;;;19.94;68.72;98567.81;27222;1216;3028103;-67
2021/09/19 06:57:25;;;;;;;24.40;17.00;;;;;;;19.74;69.06;98571.82;27210;1216;3026098;-65
2021/09/19 06:59:54;;;;;;;24.10;17.10;;;;;;;19.82;68.24;98570.92;27172;1216;3054111;-67
2021/09/19 07:02:23;;;;;;;22.00;16.40;;;;;;;19.50;68.96;98573.17;27205;1209;3026028;-67
2021/09/19 07:04:53;;;;;;;23.80;15.70;;;;;;;19.36;69.40;98574.94;27207;1216;3052741;-66
2021/09/19 07:07:23;;;;;;;16.10;12.00;;;;;;;19.22;70.15;98575.46;27250;1216;3026473;-68
2021/09/19 07:09:52;;;;;;;21.60;13.50;;;;;;;19.86;67.72;98573.13;27191;1216;3027318;-67
2021/09/19 07:12:22;;;;;;;24.90;15.00;;;;;;;20.10;66.88;98575.54;27234;1216;3054280;-66
2021/09/19 07:14:53;;;;;;;22.90;14.80;;;;;;;19.86;67.38;98574.91;27202;1216;3025812;-65
2021/09/19 07:17:23;;;;;;;22.90;15.40;;;;;;;19.72;68.06;98570.09;27187;1216;3028834;-68
2021/09/19 07:19:57;;;;;;;28.40;17.10;;;;;;;19.58;68.92;98564.89;27172;1216;3051070;-69
2021/09/19 07:22:27;;;;;;;21.90;15.70;;;;;;;19.50;69.38;98560.79;27215;1216;3027684;-66
2021/09/19 07:24:56;;;;;;;19.10;12.50;;;;;;;19.45;69.68;98574.09;27200;1218;3026304;-66
2021/09/19 07:27:26;;;;;;;20.90;13.30;;;;;;;20.05;68.47;98584.65;27168;1216;3027149;-66
2021/09/19 07:29:55;;;;;;;21.80;14.10;;;;;;;20.46;66.15;98579.76;27222;1216;3054687;-67
2021/09/19 07:32:25;;;;;;;22.40;14.60;;;;;;;20.57;65.31;98591.84;27213;1217;3026445;-63
2021/09/19 07:34:54;;;;;;;21.80;15.20;;;;;;;20.08;65.57;98585.21;27211;1218;3026321;-67
2021/09/19 07:37:23;;;;;;;19.40;15.70;;;;;;;19.73;66.91;98581.34;27213;1217;3026268;-65
2021/09/19 07:39:52;;;;;;;23.10;15.80;;;;;;;19.44;67.45;98578.50;27233;1216;3049583;-68
2021/09/19 07:42:21;;;;;;;19.30;15.10;;;;;;;19.32;68.01;98582.29;27171;1216;3026013;-68
2021/09/19 07:44:50;;;;;;;17.20;12.70;;;;;;;19.15;69.20;98592.55;27241;1216;3026605;-66
2021/09/19 07:47:20;;;;;;;18.30;13.70;;;;;;;19.65;67.75;98593.52;27238;1216;3028111;-65
2021/09/19 07:49:50;;;;;;;22.20;15.60;;;;;;;19.89;66.32;98589.81;27243;1217;3070584;-62
2021/09/19 07:52:20;;;;;;;19.60;14.80;;;;;;;19.61;67.42;98588.55;27222;1216;3026232;-69
2021/09/19 07:54:54;;;;;;;23.10;17.20;;;;;;;19.61;67.32;98591.68;27192;1216;3026247;-67
2021/09/19 07:57:23;;;;;;;23.80;17.10;;;;;;;19.34;68.63;98585.28;27261;1216;3054548;-65
2021/09/19 07:59:52;;;;;;;22.20;16.00;;;;;;;19.29;68.55;98590.28;27221;1218;3026301;-66
2021/09/19 08:02:22;;;;;;;20.00;12.50;;;;;;;19.31;69.01;98611.06;27212;1217;3026089;-68
2021/09/19 08:04:50;;;;;;;18.80;15.00;;;;;;;19.75;68.15;98616.98;27237;1216;3029143;-65
2021/09/19 08:07:21;;;;;;;24.70;16.10;;;;;;;20.12;66.71;98617.62;27223;1216;3058101;-64
2021/09/19 08:09:51;;;;;;;21.20;16.60;;;;;;;19.95;67.49;98612.45;27195;1216;3025845;-66
2021/09/19 08:12:21;;;;;;;22.60;16.60;;;;;;;19.93;67.65;98609.48;27223;1218;3027280;-66
2021/09/19 08:14:50;;;;;;;25.00;18.00;;;;;;;19.95;67.63;98610.15;27267;1216;3026082;-68
2021/09/19 08:17:19;;;;;;;23.50;17.90;;;;;;;19.90;67.51;98611.10;27253;1215;3051472;-70
2021/09/19 08:19:48;;;;;;;21.90;17.60;;;;;;;19.67;68.63;98612.67;27259;1209;3026383;-65
2021/09/19 08:22:17;;;;;;;16.70;12.30;;;;;;;19.58;68.67;98609.59;27236;1218;3057578;-66
2021/09/19 08:24:47;;;;;;;22.60;15.70;;;;;;;20.31;66.89;98603.33;27206;1216;3026108;-64
2021/09/19 08:27:16;;;;;;;21.30;16.70;;;;;;;20.59;65.68;98604.08;27242;1216;3025953;-64
2021/09/19 08:29:45;;;;;;;21.10;16.40;;;;;;;20.57;65.81;98601.98;27208;1216;3057536;-70
2021/09/19 08:32:21;;;;;;;19.40;16.40;;;;;;;20.44;65.22;98601.21;27225;1217;3052196;-65
2021/09/19 08:34:50;;;;;;;21.30;17.40;;;;;;;20.12;66.16;98604.98;27201;1216;3028395;-66
2021/09/19 08:37:22;;;;;;;20.80;17.70;;;;;;;19.82;66.55;98605.77;27259;1216;3055015;-64
2021/09/19 08:39:54;;;;;;;22.30;17.10;;;;;;;19.64;67.17;98600.45;27208;1218;3027963;-67
2021/09/19 08:42:28;;;;;;;17.20;13.10;;;;;;;19.75;66.68;98597.42;27220;1216;3051311;-64
2021/09/19 08:44:59;;;;;;;19.60;14.80;;;;;;;20.32;65.73;98594.23;27194;1218;3028215;-64
2021/09/19 08:47:31;;;;;;;20.00;16.00;;;;;;;20.53;64.99;98598.69;27246;1216;3027749;-67
2021/09/19 08:50:04;;;;;;;18.40;15.30;;;;;;;20.39;65.12;98592.83;27256;1215;3025690;-64
2021/09/19 08:52:36;;;;;;;19.70;14.80;;;;;;;20.18;65.64;98595.98;27190;1216;3028040;-69
2021/09/19 08:55:07;;;;;;;17.60;13.90;;;;;;;20.16;65.66;98592.30;27244;1216;3027529;-66
2021/09/19 08:57:39;;;;;;;19.70;15.30;;;;;;;20.16;65.08;98592.27;27241;1216;3026330;-67
2021/09/19 09:00:10;;;;;;;19.20;13.70;;;;;;;20.15;65.56;98596.38;27228;1209;3026133;-64
2021/09/19 09:02:55;;;;;;;11.60;9.50;;;;;;;20.43;64.54;98598.13;27210;1216;3027605;-67
2021/09/19 09:05:28;;;;;;;10.80;9.30;;;;;;;21.17;62.32;98594.43;27188;1216;3051202;-65
2021/09/19 09:07:59;;;;;;;12.70;11.30;;;;;;;21.58;60.70;98592.48;27203;1216;3070678;-63
2021/09/19 09:10:41;;;;;;;13.00;11.30;;;;;;;21.68;60.35;98597.53;27218;1217;3025678;-66
2021/09/19 09:13:12;;;;;;;13.70;11.00;;;;;;;21.36;60.28;98598.27;27250;1216;3051837;-68
2021/09/19 09:15:41;;;;;;;15.40;12.30;;;;;;;21.24;60.41;98599.02;27232;1215;3026115;-66
2021/09/19 09:18:34;;;;;;;16.30;12.50;;;;;;;21.23;60.68;98594.34;27197;1218;3027434;-69
2021/09/19 09:21:12;;;;;;;15.60;11.80;;;;;;;21.38;60.54;98600.83;27218;1218;3051532;-63
2021/09/19 09:23:45;;;;;;;14.30;10.90;;;;;;;21.35;60.23;98602.13;27218;1217;3054454;-66
2021/09/19 09:26:20;;;;;;;12.70;11.40;;;;;;;21.25;60.75;98600.49;27245;1218;3025969;-65
2021/09/19 09:28:58;;;;;;;18.30;12.60;;;;;;;21.03;60.89;98603.05;27199;1217;3049285;-66
2021/09/19 09:31:34;;;;;;;14.30;12.30;;;;;;;21.09;60.64;98605.95;27197;1216;3055018;-67
2021/09/19 09:34:13;;;;;;;16.70;14.00;;;;;;;21.27;60.20;98600.42;27286;1216;3053694;-67
2021/09/19 09:36:44;;;;;;;14.10;11.90;;;;;;;21.33;59.71;98603.99;27238;1218;3070429;-65
2021/09/19 09:39:29;;;;;;;17.10;15.30;;;;;;;21.18;59.75;98609.32;27251;1216;3026102;-67
2021/09/19 09:41:58;;;;;;;18.60;15.50;;;;;;;21.02;61.02;98611.38;27235;1218;3050341;-66
2021/09/19 09:44:29;;;;;;;17.80;14.00;;;;;;;20.95;61.43;98609.55;27224;1216;3026399;-66
2021/09/19 09:46:59;;;;;;;16.60;13.80;;;;;;;20.91;61.51;98606.67;27216;1216;3048860;-62
2021/09/19 09:49:52;;;;;;;16.90;12.90;;;;;;;20.99;61.17;98612.27;27281;1216;3028098;-69
2021/09/19 09:52:22;;;;;;;17.90;15.00;;;;;;;21.13;60.64;98609.58;27195;1216;3054651;-69
2021/09/19 09:55:09;;;;;;;19.80;15.30;;;;;;;21.38;60.50;98605.36;27220;1216;3026185;-65
2021/09/19 09:57:57;;;;;;;18.80;14.90;;;;;;;21.73;59.69;98605.86;27243;1216;3049503;-65
2021/09/19 10:00:26;;;;;;;25.20;18.10;;;;;;;21.75;59.27;98607.71;27189;1216;3052798;-65
2021/09/19 10:02:54;;;;;;;22.10;18.60;;;;;;;21.71;59.27;98612.11;27235;1218;3026027;-66
2021/09/19 10:05:25;;;;;;;21.90;18.30;;;;;;;21.59;59.20;98613.45;27185;1216;3048610;-66
2021/09/19 10:07:58;;;;;;;23.40;19.20;;;;;;;21.40;59.76;98615.64;27217;1216;3028017;-62
2021/09/19 10:10:29;;;;;;;21.50;16.90;;;;;;;21.38;60.24;98616.55;27254;1216;3026389;-64
2021/09/19 10:12:59;;;;;;;19.80;15.20;;;;;;;21.37;59.36;98615.48;27192;1216;3027344;-64
2021/09/19 10:15:48;;;;;;;16.30;13.80;;;;;;;21.33;58.27;98622.45;27208;1217;3049093;-67
2021/09/19 10:18:18;;;;;;;15.30;11.50;;;;;;;21.46;57.61;98618.56;27200;1216;3026468;-67
2021/09/19 10:21:07;;;;;;;11.30;8.50;;;;;;;21.56;56.21;98628.88;27239;1216;3055099;-63
2021/09/19 10:23:36;;;;;;;8.90;8.00;;;;;;;21.59;56.96;98626.37;27208;1201;3026485;-67
2021/09/19 10:26:23;;;;;;;10.00;8.80;;;;;;;21.37;55.56;98636.61;27226;1216;3055823;-69
2021/09/19 10:29:03;;;;;;;12.30;8.70;;;;;;;21.42;55.99;98633.88;27203;1219;3054950;-66
2021/09/19 10:31:32;;;;;;;10.90;8.30;;;;;;;21.50;55.84;98629.52;27222;1217;3028562;-65
2021/09/19 10:34:06;;;;;;;11.70;9.70;;;;;;;21.39;55.14;98636.55;27221;1216;3054782;-63
2021/09/19 10:36:55;;;;;;;13.50;10.70;;;;;;;21.36;55.81;98627.34;27220;1216;3054594;-65
2021/09/19 10:39:37;;;;;;;17.60;13.50;;;;;;;21.54;55.26;98624.14;27225;1216;3025904;-64
2021/09/19 10:42:06;;;;;;;17.20;12.20;;;;;;;21.53;55.71;98625.09;27197;1216;3049601;-65
2021/09/19 10:44:45;;;;;;;15.50;11.10;;;;;;;21.64;54.85;98623.98;27232;1208;3026087;-66
2021/09/19 10:47:31;;;;;;;13.30;9.60;;;;;;;21.70;52.96;98623.61;27228;1216;3053619;-65
2021/09/19 10:50:28;;;;;;;13.10;10.20;;;;;;;21.80;52.45;98620.52;27194;1217;3068792;-68
2021/09/19 10:52:59;;;;;;;13.90;8.30;;;;;;;21.84;51.07;98620.90;27202;1216;3052067;-66
2021/09/19 10:55:52;;;;;;;9.60;8.60;;;;;;;22.02;51.02;98614.74;27255;1216;3025917;-66
2021/09/19 10:58:30;;;;;;;8.80;7.20;;;;;;;22.10;49.51;98617.27;27162;1223;3051998;-64
2021/09/19 11:01:15;;;;;;;12.00;9.10;;;;;;;22.13;48.63;98613.88;27174;1221;3058382;-63
2021/09/19 11:03:46;;;;;;;13.70;7.80;;;;;;;22.26;48.88;98625.67;27142;1220;3049903;-70
2021/09/19 11:06:34;;;;;;;10.10;7.90;;;;;;;22.29;48.43;98611.34;27239;1220;3026526;-63
2021/09/19 11:09:26;;;;;;;12.10;9.40;;;;;;;22.22;49.11;98613.28;27191;1221;3053593;-65
2021/09/19 11:12:12;;;;;;;14.90;10.70;;;;;;;22.16;49.37;98613.10;27172;1222;3070557;-66
2021/09/19 11:15:03;;;;;;;13.30;11.10;;;;;;;22.36;50.21;98610.63;27123;1222;3049213;-63
2021/09/19 11:17:34;;;;;;;12.20;10.20;;;;;;;22.34;50.36;98614.33;27170;1222;3029100;-67
2021/09/19 11:20:24;;;;;;;11.90;9.40;;;;;;;22.48;49.89;98610.38;27180;1219;3055333;-64
2021/09/19 11:22:59;;;;;;;12.30;9.70;;;;;;;22.57;49.96;98602.20;27191;1221;3025874;-66
2021/09/19 11:25:28;;;;;;;10.40;8.70;;;;;;;22.65;49.20;98603.98;27186;1220;3048378;-66
2021/09/19 11:28:17;;;;;;;11.10;9.70;;;;;;;22.60;49.93;98595.91;27132;1223;3052980;-63
2021/09/19 11:31:06;;;;;;;14.40;10.40;;;;;;;22.38;49.77;98595.80;27156;1221;3051488;-67
2021/09/19 11:33:35;;;;;;;13.30;10.10;;;;;;;22.42;50.56;98596.39;27186;1222;3029272;-66
2021/09/19 11:36:15;;;;;;;17.20;12.00;;;;;;;22.32;50.80;98595.66;27212;1216;3053808;-64
2021/09/19 11:38:46;;;;;;;12.30;10.20;;;;;;;22.15;51.44;98600.58;27198;1216;3053939;-68